Time;durP1;ratioP1;P1;durP2;ratioP2;P2;SDS_P1;SDS_P2;PMS_P1;PMS_P2;Temp;Humidity;BMP_temperature;BMP_pressure;BME280_temperature;BME280_humidity;BME280_pressure;Samples;Min_cycle;Max_cycle;Signal;HPM_P1;HPM_P2
2022/06/27 00:00:55;;;;;;;2.97;2.10;;;;;;;25.88;46.53;101240.72;5083233;28;20770;-60
2022/06/27 00:03:20;;;;;;;2.50;2.20;;;;;;;25.86;46.23;101247.75;5091353;28;20388;-61
2022/06/27 00:05:48;;;;;;;3.60;2.20;;;;;;;25.82;46.82;101231.03;5065279;28;20396;-61
2022/06/27 00:08:14;;;;;;;2.30;2.10;;;;;;;25.87;46.89;101250.38;5069852;28;20400;-63
2022/06/27 00:10:40;;;;;;;2.57;2.10;;;;;;;25.90;47.01;101250.34;5069969;28;20451;-61
2022/06/27 00:13:05;;;;;;;2.60;2.33;;;;;;;25.91;46.57;101241.56;5050742;28;20432;-63
2022/06/27 00:15:31;;;;;;;2.30;1.90;;;;;;;25.88;46.48;101236.28;5064271;28;20438;-65
2022/06/27 00:17:57;;;;;;;3.17;2.20;;;;;;;25.79;46.55;101209.97;5072856;28;20426;-63
2022/06/27 00:20:25;;;;;;;2.83;2.35;;;;;;;25.73;46.48;101199.44;5069423;28;20381;-63
2022/06/27 00:22:52;;;;;;;3.80;2.73;;;;;;;25.89;46.00;101232.75;5062845;28;20515;-62
2022/06/27 00:25:17;;;;;;;2.47;2.28;;;;;;;25.80;46.05;101228.44;5046937;28;20380;-61
2022/06/27 00:27:42;;;;;;;2.65;2.20;;;;;;;25.91;46.21;101240.69;5054171;28;20862;-67
2022/06/27 00:30:10;;;;;;;3.03;2.10;;;;;;;25.89;45.89;101227.50;5071543;28;20453;-60
2022/06/27 00:32:35;;;;;;;2.90;2.20;;;;;;;25.89;46.77;101227.50;5045950;28;20443;-63
2022/06/27 00:35:01;;;;;;;2.53;2.17;;;;;;;25.82;46.31;101225.78;5075222;28;20397;-61
2022/06/27 00:37:26;;;;;;;3.70;2.20;;;;;;;25.88;46.82;101231.00;5060899;28;20386;-65
2022/06/27 00:39:52;;;;;;;2.73;2.17;;;;;;;25.83;46.04;101210.84;5069390;28;20900;-61
2022/06/27 00:42:17;;;;;;;2.50;2.20;;;;;;;25.80;46.39;101201.16;5067622;28;20427;-61
2022/06/27 00:44:43;;;;;;;3.33;2.40;;;;;;;25.74;46.27;101186.25;5046690;28;20909;-59
2022/06/27 00:47:10;;;;;;;3.23;2.27;;;;;;;25.85;46.39;101207.28;5063257;28;20442;-65
2022/06/27 00:49:36;;;;;;;2.33;2.00;;;;;;;25.91;45.89;101225.72;5051620;28;20407;-60
2022/06/27 00:52:04;;;;;;;2.90;2.22;;;;;;;25.88;46.25;101225.72;5070531;28;20389;-62
2022/06/27 00:54:32;;;;;;;2.30;2.10;;;;;;;25.90;46.60;101218.69;5056012;28;20400;-61
2022/06/27 00:56:58;;;;;;;2.60;2.40;;;;;;;25.85;46.61;101215.19;5062994;28;20469;-60
2022/06/27 00:59:23;;;;;;;2.47;2.27;;;;;;;25.67;46.10;101185.41;5052164;28;20886;-61
2022/06/27 01:01:49;;;;;;;2.57;2.23;;;;;;;25.86;46.78;101222.22;5061851;28;20465;-61
2022/06/27 01:04:15;;;;;;;2.58;2.38;;;;;;;25.86;46.38;101211.69;5078063;28;20868;-60
2022/06/27 01:06:40;;;;;;;2.40;2.20;;;;;;;25.77;46.88;101198.53;5070004;28;20804;-61
2022/06/27 01:09:06;;;;;;;2.33;2.10;;;;;;;25.78;46.31;101197.66;5067378;28;20404;-61
2022/06/27 01:11:31;;;;;;;4.80;2.90;;;;;;;25.88;46.28;101215.19;5084175;28;20396;-63
2022/06/27 01:13:57;;;;;;;2.33;2.13;;;;;;;25.90;46.75;101213.41;5059888;28;20394;-60
2022/06/27 01:16:23;;;;;;;3.72;2.33;;;;;;;25.86;46.39;101203.75;5053029;28;20418;-61
2022/06/27 01:18:49;;;;;;;2.90;2.38;;;;;;;25.83;46.31;101205.56;5066143;28;20865;-62
2022/06/27 01:21:20;;;;;;;3.10;2.40;;;;;;;25.91;47.06;101215.16;5072822;28;20428;-60
2022/06/27 01:23:46;;;;;;;3.60;2.47;;;;;;;25.79;46.77;101204.69;5066342;28;20393;-63
2022/06/27 01:26:11;;;;;;;2.33;2.13;;;;;;;25.61;46.85;101174.88;5057122;28;20884;-61
2022/06/27 01:28:37;;;;;;;2.63;2.30;;;;;;;25.89;47.02;101211.66;5065881;28;20385;-60
2022/06/27 01:31:02;;;;;;;2.90;2.33;;;;;;;25.92;47.11;101211.63;5056779;28;20964;-60
2022/06/27 01:33:28;;;;;;;3.33;2.30;;;;;;;25.91;47.00;101215.16;5063178;28;20447;-63
2022/06/27 01:36:41;;;;;;;2.80;2.10;;;;;;;25.85;47.25;101209.91;5086586;28;20391;-61
2022/06/27 01:38:38;;;;;;;2.65;2.13;;;;;;;25.89;47.00;101227.50;5079030;28;20459;-61
2022/06/27 01:41:03;;;;;;;3.27;2.20;;;;;;;25.89;46.36;101290.81;5069956;28;20408;-65
2022/06/27 01:43:29;;;;;;;2.97;2.15;;;;;;;25.80;46.84;101343.63;5050120;28;20398;-61
2022/06/27 01:45:54;;;;;;;2.90;2.30;;;;;;;25.89;47.29;101380.53;5066604;28;20471;-63
2022/06/27 01:48:20;;;;;;;3.07;2.10;;;;;;;25.89;47.31;101362.06;5049817;28;20895;-59
2022/06/27 01:50:50;;;;;;;2.85;2.30;;;;;;;25.75;46.72;101308.47;5054736;28;20392;-62
2022/06/27 01:53:16;;;;;;;3.22;2.13;;;;;;;25.79;47.19;101278.53;5068628;28;20944;-61
2022/06/27 01:55:41;;;;;;;3.50;2.22;;;;;;;25.79;46.61;101299.66;5068447;28;20434;-61
2022/06/27 01:58:07;;;;;;;2.60;2.37;;;;;;;25.89;47.32;101346.22;5064421;28;20393;-60
2022/06/27 02:00:35;;;;;;;3.00;2.10;;;;;;;25.87;46.92;101340.06;5065392;28;20453;-66
2022/06/27 02:03:00;;;;;;;2.92;2.30;;;;;;;25.84;46.91;101303.16;5087312;28;20396;-67
2022/06/27 02:05:26;;;;;;;2.53;2.27;;;;;;;25.88;46.35;101294.34;5049157;28;20423;-60
2022/06/27 02:07:57;;;;;;;3.83;2.60;;;;;;;25.87;46.69;101281.16;5061065;28;20390;-60
2022/06/27 02:10:22;;;;;;;2.90;2.35;;;;;;;25.84;46.80;101304.94;5067664;28;20436;-64
2022/06/27 02:12:48;;;;;;;2.93;2.30;;;;;;;25.84;46.99;101308.44;5064205;28;20432;-60
2022/06/27 02:15:16;;;;;;;2.72;2.10;;;;;;;25.81;46.31;101287.34;5081254;28;20390;-61
2022/06/27 02:17:41;;;;;;;3.67;2.30;;;;;;;25.86;46.59;101296.09;5046894;28;20398;-61
2022/06/27 02:20:07;;;;;;;2.97;2.23;;;;;;;25.81;47.01;101284.69;5086404;28;20400;-65
2022/06/27 02:22:32;;;;;;;3.65;2.90;;;;;;;25.81;46.33;101296.13;5051731;28;20383;-64
2022/06/27 02:24:58;;;;;;;3.70;2.33;;;;;;;25.86;46.83;101311.94;5086942;28;20405;-61
2022/06/27 02:27:24;;;;;;;3.80;2.35;;;;;;;25.82;46.62;101299.63;5069060;28;20745;-63
2022/06/27 02:29:49;;;;;;;3.00;2.10;;;;;;;25.85;46.71;101299.63;5064168;28;20401;-60
2022/06/27 02:32:15;;;;;;;3.60;2.10;;;;;;;25.90;46.37;101307.53;5069899;28;20768;-60
2022/06/27 02:34:41;;;;;;;2.90;2.20;;;;;;;25.84;46.86;101287.31;5070187;28;20761;-60
2022/06/27 02:37:07;;;;;;;4.38;2.33;;;;;;;25.85;46.36;101299.63;5064427;28;20396;-65
2022/06/27 02:39:35;;;;;;;3.28;2.40;;;;;;;25.86;46.95;101305.81;5044872;28;20747;-60
2022/06/27 02:42:06;;;;;;;2.80;2.15;;;;;;;25.88;46.71;101293.47;5055197;28;20396;-64
2022/06/27 02:44:32;;;;;;;3.08;2.10;;;;;;;25.83;46.52;101274.16;5054701;28;20396;-65
2022/06/27 02:46:57;;;;;;;3.47;2.10;;;;;;;25.86;46.31;101275.00;5064892;28;20396;-62
2022/06/27 02:49:23;;;;;;;3.90;2.17;;;;;;;25.88;46.30;101278.50;5049799;28;20887;-60
2022/06/27 02:51:59;;;;;;;2.97;2.20;;;;;;;25.83;46.20;101269.72;5084161;28;20874;-60
2022/06/27 02:54:35;;;;;;;4.45;2.58;;;;;;;25.87;46.14;101276.75;5053605;28;20402;-63
2022/06/27 02:57:04;;;;;;;3.20;2.13;;;;;;;25.86;46.37;101261.81;5062791;28;20392;-61
2022/06/27 02:59:37;;;;;;;3.22;2.05;;;;;;;25.80;46.68;101256.56;5070198;28;20400;-62
2022/06/27 03:02:07;;;;;;;3.35;2.17;;;;;;;25.85;46.06;101262.69;5047392;28;20753;-66
2022/06/27 03:04:35;;;;;;;2.63;2.08;;;;;;;25.78;46.65;101255.69;5069522;28;20900;-61
2022/06/27 03:07:01;;;;;;;2.30;2.00;;;;;;;25.72;46.33;101239.88;5048102;28;20401;-63
2022/06/27 03:09:27;;;;;;;2.60;2.00;;;;;;;25.76;46.02;101252.19;5051812;28;20896;-60
2022/06/27 03:11:52;;;;;;;3.27;2.10;;;;;;;25.84;46.13;101276.75;5052233;28;20471;-66
2022/06/27 03:14:17;;;;;;;2.17;1.90;;;;;;;25.86;46.03;101285.56;5053016;28;20780;-61
2022/06/27 03:16:43;;;;;;;2.97;2.00;;;;;;;25.84;46.04;101287.31;5054679;28;20415;-61
2022/06/27 03:19:09;;;;;;;2.83;2.00;;;;;;;25.86;45.89;101290.81;5055235;28;20420;-61
2022/06/27 03:21:34;;;;;;;3.38;2.00;;;;;;;25.82;45.64;101278.53;5049078;28;20394;-63
2022/06/27 03:24:00;;;;;;;2.60;1.83;;;;;;;25.89;45.79;101290.81;5088193;28;20395;-61
2022/06/27 03:26:26;;;;;;;2.40;1.90;;;;;;;25.84;46.46;101287.31;5070095;28;20449;-60
2022/06/27 03:28:51;;;;;;;3.90;2.10;;;;;;;25.83;46.26;101298.75;5040269;28;20390;-61
2022/06/27 03:31:16;;;;;;;2.87;1.87;;;;;;;25.81;45.62;101287.34;5049304;28;20421;-61
2022/06/27 03:33:44;;;;;;;3.10;2.00;;;;;;;25.85;46.36;101289.06;5048567;28;20389;-61
2022/06/27 03:36:10;;;;;;;3.15;1.98;;;;;;;25.73;45.76;101274.19;5063441;28;20396;-60
2022/06/27 03:38:36;;;;;;;3.00;2.10;;;;;;;25.77;46.47;101304.06;5068284;28;20389;-63
2022/06/27 03:41:02;;;;;;;2.17;1.93;;;;;;;25.82;45.80;101352.41;5046206;28;20388;-61
2022/06/27 03:43:28;;;;;;;3.22;2.05;;;;;;;25.78;45.97;101377.03;5046908;28;20394;-60
2022/06/27 03:45:54;;;;;;;3.05;2.05;;;;;;;25.84;45.91;101381.44;5064277;28;20392;-61
2022/06/27 03:51:04;;;;;;;3.03;2.03;;;;;;;25.84;46.12;101345.38;5084007;28;20446;-61
2022/06/27 03:53:30;;;;;;;2.63;1.90;;;;;;;25.81;45.85;101324.28;5051567;28;20835;-60
2022/06/27 03:55:55;;;;;;;3.00;1.80;;;;;;;25.82;46.13;101294.38;5067848;28;20479;-61
2022/06/27 03:58:20;;;;;;;3.43;1.90;;;;;;;25.86;46.21;101298.75;5069853;28;20395;-60
2022/06/27 04:00:46;;;;;;;2.40;1.90;;;;;;;25.88;46.26;101298.75;5048987;28;20382;-60
2022/06/27 04:03:16;;;;;;;3.37;2.10;;;;;;;25.85;46.25;101273.25;4027168;23;20445;-53
2022/06/27 04:05:43;;;;;;;3.03;2.00;;;;;;;25.84;45.74;101276.75;5025482;28;20395;-58
2022/06/27 04:08:12;;;;;;;4.25;2.00;;;;;;;25.85;45.37;101262.69;5052691;28;20400;-55
2022/06/27 04:10:38;;;;;;;3.08;1.90;;;;;;;25.85;46.32;101246.84;5027334;28;20490;-51
2022/06/27 04:13:04;;;;;;;4.10;2.00;;;;;;;25.82;46.27;101246.88;5053779;28;20479;-50
2022/06/27 04:15:30;;;;;;;3.77;2.40;;;;;;;25.84;45.79;101252.16;5056616;28;20433;-54
2022/06/27 04:18:01;;;;;;;2.97;1.80;;;;;;;25.82;45.78;101267.97;5068189;28;20393;-57
2022/06/27 04:20:29;;;;;;;3.17;2.08;;;;;;;25.78;46.01;101271.50;5053877;28;20889;-53
2022/06/27 04:23:00;;;;;;;2.60;1.88;;;;;;;25.75;46.00;101255.69;5049606;28;20452;-56
2022/06/27 04:25:26;;;;;;;6.10;1.90;;;;;;;25.79;46.03;101239.88;5068014;28;20400;-57
2022/06/27 04:28:00;;;;;;;5.87;1.90;;;;;;;25.79;46.30;101231.06;5028778;28;20395;-60
2022/06/27 04:30:28;;;;;;;3.03;2.00;;;;;;;25.84;46.21;101245.09;5028880;28;20400;-61
2022/06/27 04:33:04;;;;;;;4.00;1.73;;;;;;;25.88;46.65;101262.69;5052207;28;20406;-58
2022/06/27 04:35:30;;;;;;;3.92;2.20;;;;;;;25.86;46.75;101243.34;5062402;28;20409;-60
2022/06/27 04:37:56;;;;;;;4.07;2.05;;;;;;;25.93;46.42;101233.63;5041497;28;20399;-56
2022/06/27 04:40:21;;;;;;;3.87;2.00;;;;;;;25.94;46.79;101228.34;5031854;28;20414;-64
2022/06/27 04:42:49;;;;;;;4.27;2.30;;;;;;;25.91;47.62;101220.44;5048321;28;20608;-60
2022/06/27 04:45:15;;;;;;;5.18;2.30;;;;;;;25.87;47.17;101202.88;5055392;28;20455;-64
2022/06/27 04:47:41;;;;;;;3.60;2.00;;;;;;;25.86;47.38;101185.28;5048933;28;20400;-59
2022/06/27 04:50:09;;;;;;;3.72;2.20;;;;;;;25.84;46.94;101144.84;5049816;28;20391;-62
2022/06/27 04:52:41;;;;;;;3.85;2.22;;;;;;;25.83;46.97;101160.72;5054495;28;20497;-58
2022/06/27 04:55:12;;;;;;;5.27;2.23;;;;;;;25.85;47.54;101178.25;5036081;28;20389;-59
2022/06/27 04:57:43;;;;;;;4.85;2.60;;;;;;;25.79;47.65;101170.38;5035008;28;20389;-58
2022/06/27 05:00:11;;;;;;;4.72;2.20;;;;;;;25.81;47.76;101208.19;5053307;28;20386;-57
2022/06/27 05:02:39;;;;;;;3.67;2.13;;;;;;;25.78;47.71;101213.47;5030439;28;20423;-55
2022/06/27 05:05:11;;;;;;;2.83;2.20;;;;;;;25.75;47.68;101202.94;5048320;28;20856;-56
2022/06/27 05:07:39;;;;;;;4.18;2.05;;;;;;;25.72;47.46;101193.31;5050401;28;20885;-55
2022/06/27 05:10:06;;;;;;;4.50;2.40;;;;;;;25.69;47.50;101202.97;5033477;28;20393;-57
2022/06/27 05:12:33;;;;;;;4.10;2.33;;;;;;;25.69;48.10;101203.88;5054270;28;20481;-57
2022/06/27 05:15:01;;;;;;;4.05;2.30;;;;;;;25.67;48.39;101200.34;5049741;28;20395;-57
2022/06/27 05:17:27;;;;;;;5.72;2.33;;;;;;;25.65;47.74;101197.72;5069948;28;20389;-56
2022/06/27 05:19:52;;;;;;;4.35;2.25;;;;;;;25.65;47.68;101184.53;5045333;28;20903;-59
2022/06/27 05:22:18;;;;;;;3.00;2.20;;;;;;;25.64;47.88;101185.41;5026200;28;20393;-55
2022/06/27 05:24:45;;;;;;;5.57;2.50;;;;;;;25.64;48.03;101190.69;5054890;28;20390;-59
2022/06/27 05:27:17;;;;;;;3.95;2.20;;;;;;;25.64;48.16;101195.97;5041143;28;20390;-60
2022/06/27 05:29:43;;;;;;;3.63;2.05;;;;;;;25.63;48.01;101202.13;5038356;28;20470;-60
2022/06/27 05:32:11;;;;;;;3.55;2.17;;;;;;;25.62;48.19;101213.56;5035740;28;20940;-56
2022/06/27 05:34:36;;;;;;;3.97;2.35;;;;;;;25.63;48.35;101231.13;5043466;28;20416;-57
2022/06/27 05:37:04;;;;;;;3.88;2.20;;;;;;;25.62;48.85;101231.16;5052467;28;20390;-56
2022/06/27 05:39:34;;;;;;;3.55;2.20;;;;;;;25.59;48.55;101229.41;5054903;28;20396;-57
2022/06/27 05:42:00;;;;;;;4.15;2.10;;;;;;;25.60;48.39;101220.59;5050427;28;20492;-58
2022/06/27 05:44:34;;;;;;;4.03;2.10;;;;;;;25.59;49.14;101224.13;5062905;28;20443;-57
2022/06/27 05:47:00;;;;;;;4.00;2.50;;;;;;;25.61;49.05;101226.75;5042404;28;20394;-53
2022/06/27 05:49:31;;;;;;;3.43;2.27;;;;;;;25.60;49.10;101233.78;5052474;28;20798;-57
2022/06/27 05:51:57;;;;;;;4.72;2.45;;;;;;;25.60;49.05;101210.03;5053547;28;20394;-57
2022/06/27 05:54:29;;;;;;;5.60;2.70;;;;;;;25.60;48.93;101188.94;5047782;28;20378;-52
2022/06/27 05:56:58;;;;;;;8.40;3.42;;;;;;;25.62;49.38;101181.91;5037695;28;20422;-55
2022/06/27 05:59:24;;;;;;;13.65;4.40;;;;;;;25.62;49.32;101187.19;5041019;28;20433;-52
2022/06/27 06:01:55;;;;;;;10.18;3.63;;;;;;;25.61;49.56;101185.44;5068925;28;20457;-56
2022/06/27 06:04:32;;;;;;;11.85;4.00;;;;;;;25.56;48.79;101175.81;5028624;28;20423;-56
2022/06/27 06:07:03;;;;;;;9.00;3.75;;;;;;;25.59;49.40;101170.50;5054774;28;20798;-58
2022/06/27 06:09:29;;;;;;;10.32;3.90;;;;;;;25.59;49.16;101171.38;5035474;28;20384;-55
2022/06/27 06:11:57;;;;;;;13.55;4.35;;;;;;;25.61;49.26;101180.16;5038082;28;20489;-57
2022/06/27 06:14:22;;;;;;;11.18;4.53;;;;;;;25.60;49.11;101172.25;5053958;28;20451;-52
2022/06/27 06:16:51;;;;;;;11.27;4.60;;;;;;;25.59;49.63;101165.25;5054085;28;20390;-59
2022/06/27 06:19:17;;;;;;;14.20;4.40;;;;;;;25.58;49.76;101164.34;5026448;28;20389;-57
2022/06/27 06:21:43;;;;;;;10.13;3.97;;;;;;;25.58;49.50;101159.06;4846501;23;20417;-55
2022/06/27 06:24:08;;;;;;;11.20;4.47;;;;;;;25.60;49.25;101157.31;4975668;28;20430;-55
2022/06/27 06:26:34;;;;;;;11.30;4.47;;;;;;;25.62;49.44;101155.53;4975488;28;20766;-57
2022/06/27 06:29:05;;;;;;;8.82;4.10;;;;;;;25.60;49.39;101146.75;4993103;28;20409;-55
2022/06/27 06:31:33;;;;;;;10.65;4.05;;;;;;;25.62;49.70;101155.53;5006510;28;20446;-52
2022/06/27 06:33:59;;;;;;;12.23;4.38;;;;;;;25.60;49.98;101136.19;4990881;28;20888;-59
2022/06/27 06:36:27;;;;;;;11.67;5.13;;;;;;;25.60;49.80;101141.47;4972493;28;20386;-57
2022/06/27 06:38:57;;;;;;;10.00;4.43;;;;;;;25.59;49.38;101144.13;4975034;28;20495;-55
2022/06/27 06:41:23;;;;;;;10.77;4.38;;;;;;;25.59;49.56;101150.28;4975245;28;20885;-60
2022/06/27 06:43:49;;;;;;;9.33;4.50;;;;;;;25.63;49.24;101151.16;4975707;28;20377;-57
2022/06/27 06:46:14;;;;;;;9.13;4.18;;;;;;;25.59;49.87;101150.28;4974712;28;20436;-56
2022/06/27 06:48:44;;;;;;;8.60;4.27;;;;;;;25.56;50.00;101139.75;4992147;28;21065;-57
2022/06/27 06:51:09;;;;;;;6.97;3.55;;;;;;;25.61;49.79;101148.50;4973818;28;20396;-57
2022/06/27 06:53:38;;;;;;;7.82;3.90;;;;;;;25.60;49.16;101149.38;4976609;28;20369;-53
2022/06/27 06:56:05;;;;;;;9.32;3.60;;;;;;;25.60;49.95;101156.44;4992398;28;20384;-57
2022/06/27 06:58:30;;;;;;;6.83;3.30;;;;;;;25.57;50.27;101157.31;4976245;28;20514;-57
2022/06/27 07:00:58;;;;;;;7.43;3.60;;;;;;;25.59;49.83;101155.53;4976061;28;20467;-58
2022/06/27 07:03:24;;;;;;;6.23;3.40;;;;;;;25.61;49.79;101159.06;4971649;28;20397;-60
2022/06/27 07:05:50;;;;;;;6.30;3.53;;;;;;;25.62;50.58;101158.16;4965503;28;20470;-59
2022/06/27 07:08:18;;;;;;;6.35;3.25;;;;;;;25.59;50.33;101157.31;4974586;28;20397;-57
2022/06/27 07:10:44;;;;;;;4.45;3.13;;;;;;;25.60;49.95;101173.13;4974879;28;20443;-57
2022/06/27 07:13:17;;;;;;;5.78;3.45;;;;;;;25.59;50.58;101171.38;4982540;28;20411;-57
2022/06/27 07:15:46;;;;;;;6.57;3.40;;;;;;;25.61;50.66;101169.59;4973327;28;20863;-57
2022/06/27 07:18:13;;;;;;;5.90;3.45;;;;;;;25.60;49.94;101170.50;4986792;28;20917;-57
2022/06/27 07:20:41;;;;;;;7.47;3.70;;;;;;;25.60;50.31;101183.69;4958506;28;20880;-58
2022/06/27 07:23:08;;;;;;;7.00;3.60;;;;;;;25.61;50.21;101201.25;5006560;28;20809;-58
2022/06/27 07:25:38;;;;;;;7.85;3.70;;;;;;;25.61;50.13;101225.00;4991830;28;20384;-58
2022/06/27 07:28:04;;;;;;;6.88;4.00;;;;;;;25.59;50.37;101239.09;4990867;28;20385;-57
2022/06/27 07:30:30;;;;;;;6.28;3.40;;;;;;;25.61;50.22;101259.28;4990739;28;20373;-57
2022/06/27 07:32:55;;;;;;;7.07;3.73;;;;;;;25.62;50.24;101245.22;4990560;28;20988;-55
2022/06/27 07:35:24;;;;;;;5.67;3.50;;;;;;;25.61;50.48;101232.91;4991826;28;20384;-57
2022/06/27 07:37:49;;;;;;;6.65;3.55;;;;;;;25.62;50.96;101244.34;4974374;28;20732;-57
2022/06/27 07:40:23;;;;;;;7.30;3.47;;;;;;;25.62;50.82;101239.94;4975842;28;20499;-59
2022/06/27 07:43:00;;;;;;;5.15;3.50;;;;;;;25.62;50.84;101245.22;4984382;28;20404;-58
2022/06/27 07:45:32;;;;;;;7.30;4.57;;;;;;;25.60;51.27;101241.69;5009011;28;20384;-53
2022/06/27 07:47:57;;;;;;;8.90;5.43;;;;;;;25.62;50.29;101245.22;4988752;28;20489;-57
2022/06/27 07:50:40;;;;;;;6.50;5.00;;;;;;;25.59;50.84;101245.22;4961742;28;20908;-58
2022/06/27 07:53:19;;;;;;;8.38;6.05;;;;;;;25.58;50.44;101246.09;4978105;28;20619;-59
2022/06/27 07:55:50;;;;;;;9.63;5.40;;;;;;;25.57;50.92;101246.97;4990706;28;20382;-56
2022/06/27 07:58:26;;;;;;;10.05;6.13;;;;;;;25.55;50.47;101232.94;4978273;28;20423;-59
2022/06/27 08:00:52;;;;;;;8.25;4.93;;;;;;;25.55;50.51;101232.94;5009590;28;20412;-55
2022/06/27 08:06:12;;;;;;;8.83;5.00;;;;;;;25.56;50.74;101228.53;4972501;28;20797;-56
2022/06/27 08:08:39;;;;;;;6.57;5.00;;;;;;;25.56;50.52;101229.41;4993417;28;20396;-57
2022/06/27 08:11:11;;;;;;;5.90;4.32;;;;;;;25.55;50.49;101222.38;4977592;28;20706;-59
2022/06/27 08:13:40;;;;;;;6.50;4.80;;;;;;;25.54;50.52;101210.06;4994192;28;20373;-59
2022/06/27 08:16:06;;;;;;;7.78;4.63;;;;;;;25.54;50.75;101204.81;4992893;28;20400;-58
2022/06/27 08:18:31;;;;;;;7.22;4.55;;;;;;;25.53;50.53;101208.31;5010329;28;20395;-55
2022/06/27 08:20:59;;;;;;;6.40;4.45;;;;;;;25.47;50.21;101203.06;4976949;28;20401;-58
2022/06/27 08:23:24;;;;;;;5.38;4.13;;;;;;;25.45;50.86;101199.53;5007661;28;20395;-57
2022/06/27 08:25:52;;;;;;;7.75;4.80;;;;;;;25.56;50.68;101228.53;4977840;28;20364;-58
2022/06/27 08:28:20;;;;;;;7.70;4.50;;;;;;;25.55;50.62;101232.94;4993129;28;20403;-59
2022/06/27 08:30:48;;;;;;;7.13;4.50;;;;;;;25.55;50.26;101230.28;4989171;28;20829;-59
2022/06/27 08:33:14;;;;;;;6.53;3.85;;;;;;;25.54;50.54;101230.31;4986474;28;20427;-58
2022/06/27 08:35:44;;;;;;;6.57;4.13;;;;;;;25.54;50.87;101236.44;4961774;28;20516;-57
2022/06/27 08:38:10;;;;;;;5.85;4.00;;;;;;;25.54;50.33;101241.72;4990688;28;20396;-57
2022/06/27 08:40:35;;;;;;;7.38;4.38;;;;;;;25.54;50.02;101247.00;4975851;28;20427;-55
2022/06/27 08:43:06;;;;;;;7.00;4.57;;;;;;;25.54;50.66;101235.59;4984582;28;20384;-58
2022/06/27 08:45:31;;;;;;;6.60;4.30;;;;;;;25.54;50.76;101239.09;4977249;28;20377;-59
2022/06/27 08:47:58;;;;;;;6.47;4.47;;;;;;;25.53;50.35;101239.97;4993167;28;20466;-58
2022/06/27 08:50:26;;;;;;;6.38;4.20;;;;;;;25.54;49.81;101231.16;4996743;28;20437;-59
2022/06/27 08:52:52;;;;;;;5.95;4.63;;;;;;;25.54;49.67;101236.44;4996359;28;20398;-59
2022/06/27 08:55:18;;;;;;;6.13;4.25;;;;;;;25.52;49.80;101238.22;4974495;28;20403;-57
2022/06/27 08:57:45;;;;;;;8.23;5.03;;;;;;;25.52;50.47;101251.41;4976326;28;20473;-60
2022/06/27 09:00:14;;;;;;;6.32;4.40;;;;;;;25.52;50.33;101254.03;4984153;28;20395;-57
2022/06/27 09:02:45;;;;;;;6.40;4.53;;;;;;;25.45;49.88;101242.66;4961591;28;20474;-59
2022/06/27 09:05:24;;;;;;;6.72;4.93;;;;;;;25.50;50.22;101250.53;4993768;28;20426;-59
2022/06/27 09:07:53;;;;;;;7.90;4.85;;;;;;;25.49;50.07;101243.50;4960488;28;20444;-57
2022/06/27 09:10:34;;;;;;;8.25;5.25;;;;;;;25.51;50.37;101233.81;4971736;28;20392;-58
2022/06/27 09:13:05;;;;;;;8.95;5.60;;;;;;;25.51;49.77;101231.19;4961386;28;20483;-58
2022/06/27 09:15:55;;;;;;;7.55;5.00;;;;;;;25.52;50.36;101232.94;5009624;28;20408;-57
2022/06/27 09:18:34;;;;;;;7.68;4.50;;;;;;;25.52;50.00;101228.56;4976534;28;20392;-57
2022/06/27 09:21:03;;;;;;;9.17;5.27;;;;;;;25.51;50.36;101231.19;5010789;28;20740;-58
2022/06/27 09:23:41;;;;;;;6.45;4.43;;;;;;;25.50;49.80;101225.06;4977118;28;20483;-59
2022/06/27 09:26:31;;;;;;;7.57;5.10;;;;;;;25.50;49.68;101221.53;4976034;28;20749;-58
2022/06/27 09:29:03;;;;;;;6.78;4.93;;;;;;;25.49;49.86;101222.41;4977078;28;20388;-59
2022/06/27 09:31:45;;;;;;;6.78;4.75;;;;;;;25.47;50.44;101213.63;4992706;28;20861;-59
2022/06/27 09:34:23;;;;;;;6.80;4.70;;;;;;;25.50;49.77;101219.78;5000098;28;20401;-59
2022/06/27 09:36:59;;;;;;;10.48;5.25;;;;;;;25.51;50.67;101239.09;4975785;28;20434;-57
2022/06/27 09:39:36;;;;;;;7.90;4.72;;;;;;;25.51;49.94;101247.00;4967075;28;20526;-57
2022/06/27 09:42:06;;;;;;;9.10;4.72;;;;;;;25.51;50.34;101262.81;4974432;28;20878;-56
2022/06/27 09:44:44;;;;;;;10.00;5.25;;;;;;;25.52;50.45;101275.13;4976812;28;20393;-58
2022/06/27 09:47:24;;;;;;;9.00;5.10;;;;;;;25.51;49.79;101260.19;5006878;28;20391;-55
2022/06/27 09:49:59;;;;;;;7.05;5.10;;;;;;;25.51;50.48;101253.16;4948177;28;20387;-58
2022/06/27 09:52:26;;;;;;;9.10;6.00;;;;;;;25.51;50.46;101231.19;4992551;28;20369;-59
2022/06/27 09:54:55;;;;;;;9.63;7.80;;;;;;;25.50;49.75;101218.88;4975950;28;20392;-57
2022/06/27 09:57:22;;;;;;;10.00;6.73;;;;;;;25.48;50.33;101211.00;4973373;28;20441;-60
2022/06/27 09:59:49;;;;;;;9.48;7.43;;;;;;;25.52;50.60;101222.38;5008055;28;20392;-59
2022/06/27 10:04:40;;;;;;;9.88;7.78;;;;;;;25.54;49.84;101230.31;5052320;23;20422;-60
2022/06/27 10:07:07;;;;;;;9.93;7.18;;;;;;;25.53;50.86;101239.97;5032557;28;20401;-60
2022/06/27 10:09:35;;;;;;;8.52;7.00;;;;;;;25.51;50.24;101237.34;5030264;28;20397;-62
2022/06/27 10:12:22;;;;;;;10.32;7.13;;;;;;;25.54;50.44;101246.13;5050017;28;20407;-61
2022/06/27 10:15:09;;;;;;;10.75;7.15;;;;;;;25.54;50.74;101233.81;5042889;28;20396;-61
2022/06/27 10:17:39;;;;;;;9.65;6.78;;;;;;;25.54;50.42;101236.44;5050004;28;20729;-62
2022/06/27 10:20:12;;;;;;;8.18;6.78;;;;;;;25.55;50.64;101243.47;5047397;28;20380;-60
2022/06/27 10:22:38;;;;;;;8.90;7.20;;;;;;;25.51;50.19;101240.00;5022276;28;20410;-59
2022/06/27 10:25:25;;;;;;;9.60;6.93;;;;;;;25.55;50.67;101248.75;5050499;28;20797;-61
2022/06/27 10:28:16;;;;;;;8.23;6.90;;;;;;;25.55;50.56;101254.03;5035357;28;20862;-60
2022/06/27 10:30:47;;;;;;;9.57;6.82;;;;;;;25.55;49.87;101253.16;5030821;28;20392;-60
2022/06/27 10:33:25;;;;;;;11.27;7.47;;;;;;;25.55;50.65;101254.03;5046423;28;20864;-60
2022/06/27 10:38:33;;;;;;;8.02;6.88;;;;;;;25.55;50.62;101227.66;5044275;28;20422;-60
2022/06/27 10:41:03;;;;;;;8.43;7.28;;;;;;;25.56;50.52;101224.13;5049835;28;20403;-60
2022/06/27 10:43:45;;;;;;;9.85;6.60;;;;;;;25.51;51.08;101218.91;5050278;28;20422;-60
2022/06/27 10:46:10;;;;;;;9.87;6.93;;;;;;;25.55;51.03;101227.66;5051622;28;20886;-61
2022/06/27 10:48:42;;;;;;;9.83;7.37;;;;;;;25.55;50.85;101238.19;5047842;28;20391;-60
2022/06/27 10:51:33;;;;;;;11.45;7.22;;;;;;;25.55;50.55;101243.47;5026647;28;20389;-61
2022/06/27 10:53:59;;;;;;;9.05;7.30;;;;;;;25.56;50.57;101239.94;5032826;28;20392;-59
2022/06/27 10:56:52;;;;;;;10.20;7.30;;;;;;;25.59;50.47;101239.94;5040114;28;20400;-60
2022/06/27 10:59:20;;;;;;;10.20;7.57;;;;;;;25.62;50.06;101242.56;5030986;28;20397;-60
2022/06/27 11:01:51;;;;;;;11.65;7.95;;;;;;;25.60;50.52;101236.41;5038669;28;20385;-60
2022/06/27 11:04:28;;;;;;;9.97;7.43;;;;;;;25.61;50.11;101240.81;5043702;28;20378;-60
2022/06/27 11:06:56;;;;;;;9.80;8.10;;;;;;;25.61;50.79;101230.25;5021329;28;20403;-60
2022/06/27 11:09:53;;;;;;;10.95;9.43;;;;;;;25.61;50.18;101232.91;5047854;28;20863;-60
2022/06/27 11:12:23;;;;;;;11.63;9.10;;;;;;;25.61;50.11;101227.63;5050185;28;20387;-60
2022/06/27 11:14:49;;;;;;;10.37;8.90;;;;;;;25.60;50.31;101241.69;5030704;28;20400;-61
2022/06/27 11:17:44;;;;;;;14.88;11.40;;;;;;;25.60;50.08;101236.41;5029365;28;20424;-60
2022/06/27 11:20:14;;;;;;;11.43;10.23;;;;;;;25.61;50.76;101238.19;5028485;28;20382;-59
2022/06/27 11:22:41;;;;;;;11.43;9.50;;;;;;;25.56;50.08;101232.03;5016301;28;20393;-59
2022/06/27 11:25:07;;;;;;;11.85;9.02;;;;;;;25.57;50.48;101231.16;5049129;28;20877;-61
2022/06/27 11:31:57;;;;;;;9.97;8.40;;;;;;;25.58;50.53;101232.91;5047486;28;20472;-60
2022/06/27 11:33:31;;;;;;;10.37;8.20;;;;;;;25.52;50.81;101248.75;5049779;28;20394;-61
2022/06/27 11:35:56;;;;;;;9.83;8.23;;;;;;;25.60;50.56;101262.78;5048710;28;20396;-61
2022/06/27 11:38:30;;;;;;;9.87;8.13;;;;;;;25.63;50.60;101262.78;5049778;28;20382;-60
2022/06/27 11:41:00;;;;;;;10.50;8.13;;;;;;;25.65;50.20;101266.28;5049732;28;20379;-60
2022/06/27 11:43:52;;;;;;;8.93;7.80;;;;;;;25.66;49.93;101261.91;5046714;28;20387;-60
2022/06/27 11:46:24;;;;;;;9.87;7.77;;;;;;;25.66;50.43;101262.78;5021776;28;20546;-60